Aérodrome :
LOGIN :

S'inscrire | Disclaimer

   EN    FR    IT 

 










Légende :    VFR   VFR Marginal   IFR   IFR Intensif   IFR Très Intensif
Visi : 
Plafond : 
>= 8 km
>= 3000ft
5 à 8 km
1000 à 3000 ft
1500m à 5 km
500 à 1000 ft
800 à 1500m
200 à 500 ft
< 800m
< 200 ft
Symboles :   Orages  Brouillard  Fortes neiges  Fortes précipitations  Vent > 20 kt
SIGMETs :   Divers  Orages  Givrage  Turbulence  Onde Orograph.  Cendres Volcan.







- Altitude de l'aérodrome : 138 ft
- Code IATA : BIO


LEBB - Bilbao

DERNIER METAR :
  • 280030Z AUTO VRB01KT 6000 BKN008/// 18/17 Q1013

METARs EXPIRÉS :
  • 280000Z AUTO 00000KT 5000 BR FEW006/// SCT011/// 18/17 Q1013
  • 272330Z AUTO VRB01KT 5000 BR FEW005/// BKN011/// 18/17 Q1013
  • 272300Z AUTO 29004KT 250V330 6000 FEW007/// SCT033/// 18/17 Q1014
  • 272230Z AUTO 29005KT 250V330 8000 FEW040 18/17 Q1014

TAF TAF LEBB
Valide du 28 à 00h jusqu'au 29 à 00h UTC


272300Z 2800/2824 14007KT 9999 SCT030 TX33/2814Z TN17/2803Z
PROB30
TEMPO 2802/2805 4500 -SHRA TS BR BKN008 SCT030CB
TEMPO 2805/2810 18015G25KT
BECMG 2814/2816 32009KT
TEMPO 2815/2818 27015G25KT
PROB30
TEMPO 2815/2817 28020G35KT
PROB40
TEMPO 2816/2824 4000 SHRA BKN012 BKN030TCU
PROB40
TEMPO 2816/2824 4000 TSRA BKN012 BKN025CB
Pas de NOTAMs connus pour ce terrain.
1 SIGMET publié pour la FIR Madrid (LECM) :
 
Orages noyés dans la masse
LECM SIGMET 1 VALID 280100/280400 LEVA
LECM MADRID FIR/UIR EMBD TS FCST N OF LINE N4230 W007 - N4210 W00410 TOP FL380 MOV N 10KT WKN=



MET'MAP, la Météo Aéronautique d'un coup d'oeil ! - Copyright ORBIFLY Décembre 2007 - Disclaimer

ORBIFLY MET'MAP TEAM :

Programmation & Développement : Alexandra Zaïnal
Conception & Développement : Baudouin d'Aumeries
Co-Programmation & Développement : Marc-Olivier Méhu
Soutien technique & logistique : Manuel Goepfert

Contact : metmap@orbifly.com




SOURCES & CREDITS :

   NOAA